createdAt,value
2022-09-02T00:01:24.072Z,100473.97
2022-09-02T00:03:51.901Z,100469.91
2022-09-02T00:06:19.586Z,100466.84
2022-09-02T00:08:47.063Z,100466.41
2022-09-02T00:11:18.376Z,100470.97
2022-09-02T00:13:47.775Z,100463.44
2022-09-02T00:16:14.743Z,100463.69
2022-09-02T00:18:45.737Z,100464.47
2022-09-02T00:21:14.473Z,100464.97
2022-09-02T00:23:43.147Z,100469.28
2022-09-02T00:26:10.867Z,100460.94
2022-09-02T00:28:38.525Z,100465.31
2022-09-02T00:31:07.339Z,100477.56
2022-09-02T00:33:34.503Z,100466.28
2022-09-02T00:36:03.414Z,100466.41
2022-09-02T00:38:33.921Z,100469.31
2022-09-02T00:41:03.668Z,100473.59
2022-09-02T00:44:00.625Z,100469.94
2022-09-02T00:46:30.468Z,100470.69
2022-09-02T00:49:03.890Z,100470.94
2022-09-02T00:51:37.565Z,100471.00
2022-09-02T00:54:06.422Z,100464.03
2022-09-02T00:56:34.031Z,100475.94
2022-09-02T00:59:01.401Z,100471.03
2022-09-02T01:01:28.372Z,100470.87
2022-09-02T01:03:55.460Z,100468.75
2022-09-02T01:06:25.277Z,100462.41
2022-09-02T01:08:58.173Z,100478.00
2022-09-02T01:11:32.538Z,100479.53
2022-09-02T01:13:59.797Z,100465.75
2022-09-02T01:16:31.853Z,100467.59
2022-09-02T01:19:02.089Z,100473.03
2022-09-02T01:21:28.997Z,100465.09
2022-09-02T01:23:56.106Z,100477.13
2022-09-02T01:26:23.013Z,100472.19
2022-09-02T01:28:49.806Z,100469.28
2022-09-02T01:31:16.693Z,100476.94
2022-09-02T01:33:43.585Z,100472.69
2022-09-02T01:36:12.367Z,100469.09
2022-09-02T01:38:39.267Z,100465.06
2022-09-02T01:41:06.143Z,100468.56
2022-09-02T01:43:33.020Z,100464.81
2022-09-02T01:46:00.389Z,100464.09
2022-09-02T01:48:27.337Z,100465.16
2022-09-02T01:51:03.779Z,100464.69
2022-09-02T01:53:31.964Z,100460.03
2022-09-02T01:55:58.879Z,100466.00
2022-09-02T01:58:25.767Z,100466.00
2022-09-02T02:00:52.832Z,100461.97
2022-09-02T02:03:20.795Z,100458.97
2022-09-02T02:05:47.696Z,100467.09
2022-09-02T02:08:14.524Z,100469.69
2022-09-02T02:10:43.175Z,100467.75
2022-09-02T02:13:11.006Z,100465.78
2022-09-02T02:15:43.275Z,100471.50
2022-09-02T02:18:11.489Z,100466.09
2022-09-02T02:20:39.145Z,100472.94
2022-09-02T02:23:07.085Z,100469.66
2022-09-02T02:25:34.076Z,100471.47
2022-09-02T02:28:01.005Z,100466.41
2022-09-02T02:30:29.552Z,100465.78
2022-09-02T02:32:56.493Z,100471.25
2022-09-02T02:35:23.496Z,100466.59
2022-09-02T02:37:50.958Z,100460.00
2022-09-02T02:40:20.534Z,100464.88
2022-09-02T02:42:48.296Z,100462.94
2022-09-02T02:45:15.669Z,100458.28
2022-09-02T02:47:46.314Z,100462.81
2022-09-02T02:50:15.894Z,100460.84
2022-09-02T02:52:43.034Z,100465.09
2022-09-02T02:55:12.082Z,100465.50
2022-09-02T02:57:40.223Z,100462.28
2022-09-02T03:00:20.026Z,100467.72
2022-09-02T03:02:47.213Z,100459.94
2022-09-02T03:05:14.862Z,100464.13
2022-09-02T03:07:42.665Z,100466.03
2022-09-02T03:10:12.338Z,100468.81
2022-09-02T03:12:39.855Z,100471.72
2022-09-02T03:15:08.905Z,100468.91
2022-09-02T03:17:35.833Z,100468.22
2022-09-02T03:20:03.050Z,100462.50
2022-09-02T03:22:29.839Z,100471.63
2022-09-02T03:24:56.737Z,100473.06
2022-09-02T03:27:23.856Z,100469.50
2022-09-02T03:29:50.650Z,100470.72
2022-09-02T03:32:17.532Z,100473.75
2022-09-02T03:34:44.439Z,100461.22
2022-09-02T03:37:11.288Z,100462.09
2022-09-02T03:39:39.293Z,100469.72
2022-09-02T03:42:06.527Z,100463.78
2022-09-02T03:44:34.506Z,100460.78
2022-09-02T03:47:01.726Z,100473.28
2022-09-02T03:49:29.051Z,100467.81
2022-09-02T03:51:55.935Z,100472.41
2022-09-02T03:54:22.840Z,100470.87
2022-09-02T03:56:49.986Z,100472.44
2022-09-02T03:59:17.234Z,100474.87
2022-09-02T04:01:45.012Z,100474.22
2022-09-02T04:04:12.423Z,100478.88
2022-09-02T04:06:39.327Z,100469.69
2022-09-02T04:09:06.483Z,100475.62
2022-09-02T04:11:33.346Z,100476.88
2022-09-02T04:14:00.211Z,100490.47
2022-09-02T04:16:29.918Z,100491.69
2022-09-02T04:18:57.469Z,100478.84
2022-09-02T04:21:25.920Z,100483.03
2022-09-02T04:23:52.828Z,100489.81
2022-09-02T04:26:20.541Z,100490.66
2022-09-02T04:28:48.987Z,100495.66
2022-09-02T04:31:18.710Z,100492.97
2022-09-02T04:33:45.793Z,100490.47
2022-09-02T04:36:16.656Z,100491.03
2022-09-02T04:38:43.728Z,100495.78
2022-09-02T04:41:19.476Z,100504.97
2022-09-02T04:43:46.813Z,100506.91
2022-09-02T04:46:15.732Z,100501.84
2022-09-02T04:48:43.543Z,100505.91
2022-09-02T04:51:13.461Z,100515.00
2022-09-02T04:53:41.061Z,100511.66
2022-09-02T04:56:11.536Z,100512.84
2022-09-02T04:58:39.091Z,100511.91
2022-09-02T05:01:08.115Z,100506.44
2022-09-02T05:03:34.987Z,100506.44
2022-09-02T05:06:04.745Z,100512.75
2022-09-02T05:08:31.973Z,100511.09
2022-09-02T05:10:59.413Z,100502.94
2022-09-02T05:13:26.311Z,100507.03
2022-09-02T05:15:53.251Z,100516.19
2022-09-02T05:18:20.111Z,100507.53
2022-09-02T05:20:46.923Z,100514.75
2022-09-02T05:23:14.634Z,100511.41
2022-09-02T05:25:41.958Z,100507.28
2022-09-02T05:28:09.448Z,100512.78
2022-09-02T05:30:37.849Z,100509.03
2022-09-02T05:33:05.097Z,100512.69
2022-09-02T05:35:33.277Z,100517.09
2022-09-02T05:38:01.392Z,100512.34
2022-09-02T05:40:28.880Z,100508.41
2022-09-02T05:42:55.968Z,100514.47
2022-09-02T05:45:24.201Z,100510.41
2022-09-02T05:47:51.559Z,100504.94
2022-09-02T05:50:18.548Z,100504.03
2022-09-02T05:52:51.670Z,100507.69
2022-09-02T05:55:18.787Z,100502.81
2022-09-02T05:57:46.469Z,100504.25
2022-09-02T06:00:18.145Z,100504.41
2022-09-02T06:02:46.103Z,100503.69
2022-09-02T06:05:13.401Z,100504.63
2022-09-02T06:07:40.220Z,100505.84
2022-09-02T06:10:08.841Z,100502.97
2022-09-02T06:12:39.346Z,100502.50
2022-09-02T06:15:10.568Z,100505.56
2022-09-02T06:17:37.339Z,100508.63
2022-09-02T06:20:04.770Z,100503.53
2022-09-02T06:22:31.530Z,100504.94
2022-09-02T06:24:58.376Z,100509.75
2022-09-02T06:27:25.159Z,100503.41
2022-09-02T06:29:52.145Z,100511.50
2022-09-02T06:32:19.088Z,100504.16
2022-09-02T06:34:45.990Z,100517.09
2022-09-02T06:37:15.631Z,100504.03
2022-09-02T06:39:45.654Z,100508.91
2022-09-02T06:42:12.591Z,100506.81
2022-09-02T06:44:39.478Z,100504.87
2022-09-02T06:47:06.499Z,100506.53
2022-09-02T06:49:34.049Z,100516.28
2022-09-02T06:52:01.104Z,100509.94
2022-09-02T06:54:28.115Z,100508.09
2022-09-02T06:56:55.339Z,100507.81
2022-09-02T06:59:22.936Z,100507.69
2022-09-02T07:01:50.621Z,100510.16
2022-09-02T07:04:36.982Z,100501.69
2022-09-02T07:07:06.990Z,100509.28
2022-09-02T07:09:34.648Z,100500.81
2022-09-02T07:12:05.089Z,100505.69
2022-09-02T07:14:37.109Z,100502.84
2022-09-02T07:17:04.168Z,100514.03
2022-09-02T07:19:31.618Z,100505.72
2022-09-02T07:21:58.658Z,100506.91
2022-09-02T07:24:25.573Z,100506.50
2022-09-02T07:26:55.331Z,100511.06
2022-09-02T07:29:23.388Z,100508.16
2022-09-02T07:31:50.536Z,100507.06
2022-09-02T07:34:19.813Z,100511.78
2022-09-02T07:36:49.130Z,100512.03
2022-09-02T07:39:18.530Z,100497.72
2022-09-02T07:41:49.260Z,100492.25
2022-09-02T07:44:18.898Z,100496.06
2022-09-02T07:46:46.498Z,100501.84
2022-09-02T07:49:15.777Z,100500.19
2022-09-02T07:51:49.399Z,100495.88
2022-09-02T07:54:19.569Z,100495.41
2022-09-02T07:56:46.579Z,100505.06
2022-09-02T07:59:13.761Z,100498.72
2022-09-02T08:04:16.544Z,100495.16
2022-09-02T08:06:43.528Z,100501.78
2022-09-02T08:09:24.318Z,100498.34
2022-09-02T08:11:56.008Z,100501.22
2022-09-02T08:14:26.438Z,100491.09
2022-09-02T08:16:54.831Z,100496.75
2022-09-02T08:19:22.627Z,100492.81
2022-09-02T08:21:49.608Z,100496.12
2022-09-02T08:24:16.598Z,100491.56
2022-09-02T08:26:43.549Z,100498.41
2022-09-02T08:29:10.478Z,100494.72
2022-09-02T08:31:38.360Z,100491.09
2022-09-02T08:34:05.821Z,100498.69
2022-09-02T08:36:32.798Z,100503.97
2022-09-02T08:39:03.437Z,100494.13
2022-09-02T08:41:44.136Z,100490.41
2022-09-02T08:44:15.665Z,100485.03
2022-09-02T08:46:43.058Z,100496.34
2022-09-02T08:49:26.238Z,100485.34
2022-09-02T08:52:00.995Z,100490.16
2022-09-02T08:54:42.656Z,100494.31
2022-09-02T08:57:10.742Z,100492.38
2022-09-02T09:02:18.366Z,100482.59
2022-09-02T09:05:23.359Z,100487.63
2022-09-02T09:08:21.897Z,100481.50
2022-09-02T09:10:57.196Z,100472.41
2022-09-02T09:13:52.994Z,100473.53
2022-09-02T09:16:35.464Z,100469.56
2022-09-02T09:19:15.717Z,100475.56
2022-09-02T09:21:44.128Z,100470.81
2022-09-02T09:24:37.078Z,100469.56
2022-09-02T09:27:13.507Z,100462.88
2022-09-02T09:29:40.438Z,100465.69
2022-09-02T09:32:23.126Z,100471.37
2022-09-02T09:35:17.268Z,100463.53
2022-09-02T09:37:52.478Z,100458.47
2022-09-02T09:40:20.631Z,100461.31
2022-09-02T09:42:55.550Z,100451.88
2022-09-02T09:45:33.491Z,100457.91
2022-09-02T09:48:30.029Z,100454.72
2022-09-02T09:50:56.838Z,100452.62
2022-09-02T09:53:28.074Z,100465.06
2022-09-02T09:56:06.801Z,100457.91
2022-09-02T09:58:40.123Z,100463.00
2022-09-02T10:01:31.203Z,100461.28
2022-09-02T10:04:43.987Z,100462.16
2022-09-02T10:07:13.722Z,100462.69
2022-09-02T10:09:41.357Z,100467.31
2022-09-02T10:12:11.357Z,100459.97
2022-09-02T10:14:48.655Z,100451.31
2022-09-02T10:17:33.601Z,100449.12
2022-09-02T10:20:09.447Z,100453.03
2022-09-02T10:23:00.076Z,100455.22
2022-09-02T10:25:39.438Z,100459.62
2022-09-02T10:28:34.168Z,100452.03
2022-09-02T10:31:18.166Z,100449.63
2022-09-02T10:33:45.848Z,100450.69
2022-09-02T10:36:29.528Z,100451.09
2022-09-02T10:39:06.947Z,100451.53
2022-09-02T10:44:36.909Z,100447.03
2022-09-02T10:47:19.348Z,100451.44
2022-09-02T10:49:56.545Z,100439.22
2022-09-02T10:52:47.675Z,100443.44
2022-09-02T10:55:42.761Z,100435.78
2022-09-02T10:58:41.161Z,100437.28
2022-09-02T11:01:12.539Z,100430.56
2022-09-02T11:03:57.608Z,100440.72
2022-09-02T11:06:40.351Z,100427.34
2022-09-02T11:09:16.291Z,100429.19
2022-09-02T11:12:00.077Z,100428.50
2022-09-02T11:14:45.320Z,100435.47
2022-09-02T11:17:28.879Z,100427.78
2022-09-02T11:20:04.156Z,100424.63
2022-09-02T11:22:58.001Z,100421.94
2022-09-02T11:25:30.438Z,100417.00
2022-09-02T11:28:23.736Z,100415.19
2022-09-02T11:31:15.939Z,100408.19
2022-09-02T11:33:48.790Z,100409.63
2022-09-02T11:36:17.238Z,100416.53
2022-09-02T11:39:00.949Z,100410.22
2022-09-02T11:41:33.983Z,100407.53
2022-09-02T11:44:34.074Z,100406.22
2022-09-02T11:47:30.658Z,100419.41
2022-09-02T11:50:18.155Z,100406.91
2022-09-02T11:53:12.689Z,100406.94
2022-09-02T11:55:49.551Z,100402.91
2022-09-02T11:58:36.868Z,100396.34
2022-09-02T12:01:25.809Z,100394.50
2022-09-02T12:07:10.235Z,100392.63
2022-09-02T12:09:49.668Z,100386.53
2022-09-02T12:12:39.841Z,100383.50
2022-09-02T12:15:07.334Z,100384.75
2022-09-02T12:17:50.007Z,100383.59
2022-09-02T12:20:39.143Z,100373.56
2022-09-02T12:23:09.309Z,100368.75
2022-09-02T12:25:42.511Z,100363.22
2022-09-02T12:28:27.588Z,100364.22
2022-09-02T12:30:57.701Z,100369.41
2022-09-02T12:33:32.739Z,100365.25
2022-09-02T12:36:00.122Z,100364.75
2022-09-02T12:38:31.379Z,100362.44
2022-09-02T12:41:12.360Z,100359.00
2022-09-02T12:43:44.735Z,100369.50
2022-09-02T12:46:31.009Z,100360.62
2022-09-02T12:49:12.099Z,100367.84
2022-09-02T12:51:59.944Z,100367.13
2022-09-02T12:54:39.988Z,100358.41
2022-09-02T12:57:09.033Z,100352.44
2022-09-02T12:59:41.728Z,100353.41
2022-09-02T13:02:17.292Z,100355.16
2022-09-02T13:05:02.148Z,100351.34
2022-09-02T13:08:06.609Z,100350.50
2022-09-02T13:11:20.880Z,100350.81
2022-09-02T13:13:56.824Z,100346.16
2022-09-02T13:16:41.997Z,100341.41
2022-09-02T13:19:36.765Z,100339.47
2022-09-02T13:22:15.541Z,100340.16
2022-09-02T13:24:59.582Z,100345.16
2022-09-02T13:28:04.660Z,100332.19
2022-09-02T13:30:38.194Z,100335.34
2022-09-02T13:33:15.433Z,100337.88
2022-09-02T13:35:43.139Z,100340.59
2022-09-02T13:38:12.947Z,100334.53
2022-09-02T13:40:41.326Z,100340.75
2022-09-02T13:43:14.208Z,100334.25
2022-09-02T13:45:41.720Z,100326.41
2022-09-02T13:48:17.944Z,100328.84
2022-09-02T13:50:50.905Z,100340.84
2022-09-02T13:53:54.085Z,100329.28
2022-09-02T13:56:15.567Z,100336.84
2022-09-02T13:58:53.898Z,100335.56
2022-09-02T14:01:27.714Z,100334.06
2022-09-02T14:03:57.907Z,100332.78
2022-09-02T14:06:29.898Z,100329.25
2022-09-02T14:09:03.089Z,100325.59
2022-09-02T14:11:41.948Z,100335.06
2022-09-02T14:14:14.079Z,100333.00
2022-09-02T14:16:40.910Z,100341.06
2022-09-02T14:19:16.947Z,100332.03
2022-09-02T14:21:59.250Z,100337.50
2022-09-02T14:24:37.287Z,100344.88
2022-09-02T14:27:04.428Z,100334.56
2022-09-02T14:29:32.290Z,100341.53
2022-09-02T14:32:15.741Z,100337.72
2022-09-02T14:34:47.647Z,100337.94
2022-09-02T14:37:28.876Z,100337.22
2022-09-02T14:40:11.715Z,100336.09
2022-09-02T14:42:56.543Z,100338.56
2022-09-02T14:45:33.049Z,100343.59
2022-09-02T14:48:11.209Z,100335.91
2022-09-02T14:50:39.799Z,100339.97
2022-09-02T14:53:09.335Z,100331.09
2022-09-02T14:55:47.045Z,100334.66
2022-09-02T14:58:15.365Z,100336.56
2022-09-02T15:00:46.188Z,100340.75
2022-09-02T15:03:16.690Z,100342.88
2022-09-02T15:05:44.006Z,100345.31
2022-09-02T15:08:11.590Z,100346.19
2022-09-02T15:10:43.734Z,100348.25
2022-09-02T15:13:22.931Z,100346.47
2022-09-02T15:15:52.083Z,100347.53
2022-09-02T15:18:19.137Z,100345.97
2022-09-02T15:20:45.989Z,100353.78
2022-09-02T15:23:12.916Z,100344.88
2022-09-02T15:25:40.223Z,100335.47
2022-09-02T15:28:07.128Z,100344.53
2022-09-02T15:30:37.406Z,100346.59
2022-09-02T15:33:08.133Z,100348.84
2022-09-02T15:35:43.384Z,100347.56
2022-09-02T15:38:10.183Z,100342.63
2022-09-02T15:40:36.972Z,100343.31
2022-09-02T15:43:03.742Z,100343.25
2022-09-02T15:45:31.367Z,100344.19
2022-09-02T15:47:59.242Z,100348.94
2022-09-02T15:50:27.501Z,100345.25
2022-09-02T15:52:56.126Z,100340.72
2022-09-02T15:55:28.998Z,100335.94
2022-09-02T15:57:56.335Z,100347.28
2022-09-02T16:00:23.325Z,100347.00
2022-09-02T16:02:54.837Z,100344.41
2022-09-02T16:05:21.582Z,100350.59
2022-09-02T16:07:48.717Z,100341.41
2022-09-02T16:10:15.794Z,100345.25
2022-09-02T16:12:42.982Z,100353.31
2022-09-02T16:15:09.920Z,100350.84
2022-09-02T16:17:36.875Z,100354.06
2022-09-02T16:20:05.206Z,100352.78
2022-09-02T16:22:31.958Z,100346.50
2022-09-02T16:24:58.751Z,100339.81
2022-09-02T16:27:44.093Z,100345.31
2022-09-02T16:30:11.402Z,100346.28
2022-09-02T16:32:38.123Z,100341.25
2022-09-02T16:35:05.341Z,100338.22
2022-09-02T16:37:32.231Z,100333.03
2022-09-02T16:39:59.054Z,100338.78
2022-09-02T16:42:26.211Z,100330.19
2022-09-02T16:44:53.015Z,100339.25
2022-09-02T16:47:19.946Z,100339.97
2022-09-02T16:49:46.786Z,100333.38
2022-09-02T16:52:14.022Z,100330.12
2022-09-02T16:54:41.361Z,100329.97
2022-09-02T16:57:09.133Z,100333.84
2022-09-02T16:59:36.161Z,100334.72
2022-09-02T17:02:03.067Z,100337.28
2022-09-02T17:04:29.925Z,100333.84
2022-09-02T17:06:57.132Z,100337.72
2022-09-02T17:09:23.948Z,100337.28
2022-09-02T17:11:53.841Z,100327.38
2022-09-02T17:14:21.792Z,100336.97
2022-09-02T17:16:50.955Z,100340.50
2022-09-02T17:19:22.986Z,100326.84
2022-09-02T17:21:51.013Z,100331.06
2022-09-02T17:24:19.917Z,100320.31
2022-09-02T17:26:50.819Z,100325.66
2022-09-02T17:32:09.701Z,100331.28
2022-09-02T17:34:37.237Z,100331.47
2022-09-02T17:37:05.452Z,100345.09
2022-09-02T17:39:34.515Z,100340.81
2022-09-02T17:42:03.109Z,100336.16
2022-09-02T17:44:33.659Z,100343.59
2022-09-02T17:47:01.323Z,100353.53
2022-09-02T17:49:29.396Z,100354.28
2022-09-02T17:51:57.789Z,100352.37
2022-09-02T17:54:26.069Z,100347.66
2022-09-02T17:57:08.807Z,100356.41
2022-09-02T18:00:03.989Z,100353.69
2022-09-02T18:02:37.639Z,100355.87
2022-09-02T18:05:29.401Z,100355.91
2022-09-02T18:08:02.969Z,100346.88
2022-09-02T18:10:39.126Z,100348.87
2022-09-02T18:13:13.823Z,100360.31
2022-09-02T18:15:54.629Z,100355.47
2022-09-02T18:18:21.729Z,100364.09
2022-09-02T18:20:57.478Z,100366.37
2022-09-02T18:23:41.823Z,100373.88
2022-09-02T18:26:36.393Z,100368.97
2022-09-02T18:29:15.373Z,100374.94
2022-09-02T18:32:03.208Z,100376.84
2022-09-02T18:34:38.770Z,100373.22
2022-09-02T18:37:16.652Z,100376.37
2022-09-02T18:39:52.507Z,100375.22
2022-09-02T18:42:51.234Z,100377.78
2022-09-02T18:45:43.286Z,100381.84
2022-09-02T18:48:16.911Z,100388.03
2022-09-02T18:50:58.961Z,100384.62
2022-09-02T18:53:32.553Z,100387.50
2022-09-02T18:56:06.074Z,100395.56
2022-09-02T18:58:48.312Z,100406.19
2022-09-02T19:01:23.875Z,100402.50
2022-09-02T19:03:51.350Z,100403.59
2022-09-02T19:06:36.144Z,100400.09
2022-09-02T19:09:13.394Z,100406.47
2022-09-02T19:11:40.869Z,100401.41
2022-09-02T19:14:30.109Z,100398.72
2022-09-02T19:16:58.509Z,100397.31
2022-09-02T19:19:27.738Z,100394.91
2022-09-02T19:21:58.115Z,100394.69
2022-09-02T19:24:34.061Z,100398.78
2022-09-02T19:27:15.428Z,100396.69
2022-09-02T19:29:48.129Z,100404.19
2022-09-02T19:32:15.470Z,100405.28
2022-09-02T19:34:45.303Z,100407.59
2022-09-02T19:37:14.489Z,100407.06
2022-09-02T19:39:41.530Z,100408.09
2022-09-02T19:42:09.464Z,100416.50
2022-09-02T19:44:36.377Z,100407.88
2022-09-02T19:49:50.063Z,100406.91
2022-09-02T19:52:16.965Z,100408.19
2022-09-02T19:54:44.140Z,100401.97
2022-09-02T19:57:11.098Z,100404.09
2022-09-02T19:59:37.945Z,100408.62
2022-09-02T20:02:06.541Z,100407.31
2022-09-02T20:04:33.505Z,100404.62
2022-09-02T20:07:01.143Z,100403.44
2022-09-02T20:09:29.298Z,100408.97
2022-09-02T20:11:56.696Z,100414.66
2022-09-02T20:14:24.316Z,100408.50
2022-09-02T20:16:58.263Z,100414.56
2022-09-02T20:19:26.460Z,100405.66
2022-09-02T20:21:53.847Z,100402.47
2022-09-02T20:24:32.547Z,100409.59
2022-09-02T20:27:21.813Z,100411.13
2022-09-02T20:30:09.566Z,100425.56
2022-09-02T20:32:52.094Z,100433.63
2022-09-02T20:35:37.720Z,100431.97
2022-09-02T20:38:23.434Z,100430.56
2022-09-02T20:41:02.564Z,100431.62
2022-09-02T20:43:45.474Z,100424.56
2022-09-02T20:46:40.539Z,100437.72
2022-09-02T20:49:26.842Z,100430.28
2022-09-02T20:52:02.560Z,100434.50
2022-09-02T20:54:51.466Z,100432.97
2022-09-02T20:57:20.795Z,100431.62
2022-09-02T20:59:47.877Z,100439.91
2022-09-02T21:02:18.749Z,100437.56
2022-09-02T21:04:53.012Z,100446.16
2022-09-02T21:07:38.599Z,100440.00
2022-09-02T21:10:25.478Z,100440.63
2022-09-02T21:13:07.701Z,100450.19
2022-09-02T21:15:49.015Z,100446.09
2022-09-02T21:18:40.614Z,100450.87
2022-09-02T21:21:30.097Z,100447.16
2022-09-02T21:24:29.338Z,100458.66
2022-09-02T21:27:12.596Z,100454.88
2022-09-02T21:29:51.316Z,100452.59
2022-09-02T21:32:26.157Z,100456.03
2022-09-02T21:34:58.681Z,100453.16
2022-09-02T21:37:27.722Z,100458.47
2022-09-02T21:39:58.558Z,100451.09
2022-09-02T21:42:35.971Z,100454.09
2022-09-02T21:45:34.243Z,100455.59
2022-09-02T21:48:31.097Z,100459.91
2022-09-02T21:51:05.208Z,100455.59
2022-09-02T21:53:56.230Z,100454.22
2022-09-02T21:56:54.519Z,100457.91
2022-09-02T21:59:37.901Z,100455.72
2022-09-02T22:02:16.774Z,100460.53
2022-09-02T22:04:52.829Z,100455.22
2022-09-02T22:07:44.932Z,100455.13
2022-09-02T22:10:26.781Z,100452.09
2022-09-02T22:12:55.764Z,100461.91
2022-09-02T22:15:33.611Z,100459.75
2022-09-02T22:18:39.619Z,100450.78
2022-09-02T22:21:31.458Z,100452.78
2022-09-02T22:24:01.131Z,100454.19
2022-09-02T22:26:52.255Z,100450.59
2022-09-02T22:29:41.132Z,100455.34
2022-09-02T22:32:12.282Z,100447.00
2022-09-02T22:34:49.827Z,100449.91
2022-09-02T22:37:24.408Z,100438.81
2022-09-02T22:39:54.232Z,100441.75
2022-09-02T22:42:33.534Z,100443.91
2022-09-02T22:45:24.813Z,100442.12
2022-09-02T22:48:17.313Z,100443.22
2022-09-02T22:51:08.419Z,100443.87
2022-09-02T22:53:35.220Z,100444.47
2022-09-02T22:56:05.066Z,100439.34
2022-09-02T22:59:03.894Z,100432.47
2022-09-02T23:01:51.700Z,100434.69
2022-09-02T23:04:25.174Z,100441.16
2022-09-02T23:07:01.981Z,100438.00
2022-09-02T23:09:28.744Z,100438.09
2022-09-02T23:12:12.753Z,100443.97
2022-09-02T23:14:51.564Z,100452.84
2022-09-02T23:17:38.922Z,100454.50
2022-09-02T23:20:28.372Z,100442.03
2022-09-02T23:23:18.043Z,100437.44
2022-09-02T23:26:09.951Z,100438.41
2022-09-02T23:28:45.781Z,100439.78
2022-09-02T23:31:43.757Z,100441.22
2022-09-02T23:34:28.239Z,100441.38
2022-09-02T23:37:36.697Z,100443.13
2022-09-02T23:40:12.828Z,100447.13
2022-09-02T23:42:39.733Z,100445.31
2022-09-02T23:45:27.173Z,100432.91
2022-09-02T23:48:17.363Z,100435.75
2022-09-02T23:50:45.949Z,100438.72
2022-09-02T23:53:30.247Z,100434.38
2022-09-02T23:56:24.405Z,100438.19
2022-09-02T23:59:03.154Z,100436.53
